Time;durP1;ratioP1;P1;durP2;ratioP2;P2;SDS_P1;SDS_P2;PMS_P1;PMS_P2;Temp;Humidity;BMP_temperature;BMP_pressure;BME280_temperature;BME280_humidity;BME280_pressure;Samples;Min_cycle;Max_cycle;Signal;HPM_P1;HPM_P2
2021/06/12 00:01:55;;;;;;;11.63;8.03;;;22.00;99.90;;;;;;5039733;28;20446;-87
2021/06/12 00:04:23;;;;;;;7.97;7.27;;;21.90;99.90;;;;;;5047236;28;20470;-87
2021/06/12 00:06:50;;;;;;;8.80;8.03;;;21.90;99.90;;;;;;5042653;28;20523;-88
2021/06/12 00:09:16;;;;;;;8.57;7.87;;;21.90;99.90;;;;;;5042078;28;20446;-87
2021/06/12 00:11:43;;;;;;;9.43;8.53;;;21.90;99.90;;;;;;5041797;28;20450;-87
2021/06/12 00:14:09;;;;;;;9.30;8.50;;;21.90;99.90;;;;;;5040582;28;20632;-87
2021/06/12 00:16:35;;;;;;;8.17;7.37;;;21.80;99.90;;;;;;5040428;28;20466;-87
2021/06/12 00:19:01;;;;;;;8.20;7.37;;;21.70;99.90;;;;;;5040428;28;20454;-87
2021/06/12 00:21:27;;;;;;;8.63;7.93;;;21.70;99.90;;;;;;5042563;28;20957;-86
2021/06/12 00:23:54;;;;;;;8.33;7.50;;;21.70;99.90;;;;;;5053467;28;20466;-87
2021/06/12 00:26:20;;;;;;;9.20;8.13;;;21.70;99.90;;;;;;5059189;28;20464;-88
2021/06/12 00:28:47;;;;;;;10.07;7.73;;;21.70;99.90;;;;;;5059265;28;20450;-87
2021/06/12 00:31:16;;;;;;;9.00;7.90;;;21.70;99.90;;;;;;5057710;28;20451;-87
2021/06/12 00:33:43;;;;;;;8.50;7.77;;;21.70;99.90;;;;;;5058818;28;20434;-88
2021/06/12 00:36:10;;;;;;;7.73;6.97;;;21.70;99.90;;;;;;5057419;28;20467;-87
2021/06/12 00:38:39;;;;;;;8.83;8.10;;;21.70;99.90;;;;;;5047746;28;20443;-88
2021/06/12 00:41:07;;;;;;;8.83;7.57;;;21.80;99.90;;;;;;5045978;28;20454;-87
2021/06/12 00:43:34;;;;;;;7.67;6.40;;;21.80;99.90;;;;;;5047918;28;20439;-87
2021/06/12 00:46:01;;;;;;;9.60;8.60;;;21.80;99.90;;;;;;5049630;28;20465;-87
2021/06/12 00:48:28;;;;;;;9.03;7.63;;;21.70;99.90;;;;;;5044786;28;20446;-87
2021/06/12 00:50:55;;;;;;;7.60;6.90;;;21.70;99.90;;;;;;5041737;28;20457;-88
2021/06/12 00:53:36;;;;;;;7.57;6.87;;;21.70;99.90;;;;;;5044405;28;20457;-88
2021/06/12 00:56:03;;;;;;;8.17;7.47;;;21.70;99.90;;;;;;5046690;28;20467;-86
2021/06/12 00:58:30;;;;;;;8.60;7.80;;;21.70;99.90;;;;;;5048030;28;20438;-87
2021/06/12 01:00:56;;;;;;;8.13;7.33;;;21.70;99.90;;;;;;5049573;28;20474;-87
2021/06/12 01:03:27;;;;;;;11.67;7.90;;;21.70;99.90;;;;;;5054799;28;20431;-87
2021/06/12 01:05:53;;;;;;;7.77;7.10;;;21.70;99.90;;;;;;5055268;28;20474;-87
2021/06/12 01:08:19;;;;;;;8.30;7.40;;;21.70;99.90;;;;;;5047429;28;20438;-87
2021/06/12 01:10:45;;;;;;;7.93;7.20;;;21.70;99.90;;;;;;5041073;28;20451;-87
2021/06/12 01:13:18;;;;;;;7.93;7.20;;;21.70;99.90;;;;;;5040761;28;20458;-88
2021/06/12 01:15:52;;;;;;;8.50;7.50;;;21.70;99.90;;;;;;5051855;28;20466;-87
2021/06/12 01:18:22;;;;;;;9.40;8.20;;;21.70;99.90;;;;;;5058177;28;20446;-87
2021/06/12 01:21:04;;;;;;;9.10;8.30;;;21.70;99.90;;;;;;5056135;28;20423;-87
2021/06/12 01:24:05;;;;;;;10.17;9.13;;;21.70;99.90;;;;;;5048975;28;20446;-87
2021/06/12 01:26:45;;;;;;;9.40;8.50;;;21.70;99.90;;;;;;5023031;28;20469;-87
2021/06/12 01:29:27;;;;;;;8.20;7.60;;;21.70;99.90;;;;;;5057474;28;20435;-87
2021/06/12 01:31:56;;;;;;;9.63;8.53;;;21.60;99.90;;;;;;5055420;28;20427;-87
2021/06/12 01:34:24;;;;;;;13.23;8.87;;;21.60;99.90;;;;;;5055052;28;20439;-87
2021/06/12 01:36:51;;;;;;;7.63;6.93;;;21.60;99.90;;;;;;5044448;28;20471;-87
2021/06/12 01:39:22;;;;;;;9.20;8.37;;;21.60;99.90;;;;;;5041840;28;20462;-87
2021/06/12 01:41:51;;;;;;;9.33;8.53;;;21.60;99.90;;;;;;5038892;28;20534;-87
2021/06/12 01:44:19;;;;;;;8.93;8.07;;;21.60;99.90;;;;;;5039237;28;20482;-87
2021/06/12 01:46:46;;;;;;;9.10;8.20;;;21.50;99.90;;;;;;5039125;28;20520;-86
2021/06/12 01:49:14;;;;;;;7.97;7.23;;;21.50;99.90;;;;;;5039226;28;20964;-87
2021/06/12 01:51:41;;;;;;;7.93;7.17;;;21.50;99.90;;;;;;5038404;28;20469;-87
2021/06/12 01:54:09;;;;;;;7.70;7.00;;;21.40;99.90;;;;;;5038278;28;20449;-87
2021/06/12 01:56:35;;;;;;;7.87;7.17;;;21.40;99.90;;;;;;5040022;28;20482;-87
2021/06/12 01:59:03;;;;;;;8.80;7.93;;;21.50;99.90;;;;;;5037925;28;20447;-87
2021/06/12 02:01:30;;;;;;;8.23;7.40;;;21.50;99.90;;;;;;5038171;28;20454;-87
2021/06/12 02:03:57;;;;;;;7.73;7.03;;;21.40;99.90;;;;;;5037203;28;20509;-86
2021/06/12 02:06:26;;;;;;;8.53;7.70;;;21.40;99.90;;;;;;5037349;28;20489;-87
2021/06/12 02:08:53;;;;;;;9.03;8.23;;;21.50;99.90;;;;;;5037463;28;20442;-87
2021/06/12 02:11:20;;;;;;;8.43;7.73;;;21.50;99.90;;;;;;5037002;28;20443;-87
2021/06/12 02:13:47;;;;;;;8.27;7.67;;;21.50;99.90;;;;;;5037191;28;20535;-87
2021/06/12 02:16:15;;;;;;;8.33;7.53;;;21.50;99.90;;;;;;5036769;28;20503;-87
2021/06/12 02:18:44;;;;;;;8.63;7.93;;;21.40;99.90;;;;;;5042871;28;20503;-87
2021/06/12 02:21:13;;;;;;;9.33;8.43;;;21.40;99.90;;;;;;5038226;28;20496;-87
2021/06/12 02:23:41;;;;;;;9.37;8.50;;;21.30;99.90;;;;;;5037395;28;20454;-87
2021/06/12 02:26:11;;;;;;;8.00;7.20;;;21.20;99.90;;;;;;5037200;28;20475;-87
2021/06/12 02:28:38;;;;;;;9.43;8.43;;;21.20;99.90;;;;;;5037535;28;20450;-87
2021/06/12 02:31:07;;;;;;;9.33;8.57;;;21.20;99.90;;;;;;5037509;28;20910;-87
2021/06/12 02:33:35;;;;;;;8.30;7.50;;;21.10;99.90;;;;;;5037671;28;20467;-87
2021/06/12 02:36:02;;;;;;;9.73;8.80;;;21.10;99.90;;;;;;5048742;28;20478;-87
2021/06/12 02:38:29;;;;;;;9.30;8.33;;;21.10;99.90;;;;;;5049510;28;20443;-87
2021/06/12 02:40:57;;;;;;;11.13;8.90;;;21.10;99.90;;;;;;5041890;28;20446;-87
2021/06/12 02:43:23;;;;;;;8.30;7.50;;;21.00;99.90;;;;;;5037693;28;20493;-87
2021/06/12 02:45:49;;;;;;;9.40;8.63;;;21.00;99.90;;;;;;5037321;28;20514;-87
2021/06/12 02:48:18;;;;;;;9.30;8.47;;;21.10;99.90;;;;;;5037746;28;20454;-86
2021/06/12 02:50:46;;;;;;;9.90;9.10;;;21.00;99.90;;;;;;5043984;28;20451;-87
2021/06/12 02:53:14;;;;;;;9.13;8.40;;;21.00;99.90;;;;;;5049174;28;20446;-87
2021/06/12 02:55:42;;;;;;;9.20;8.27;;;20.90;99.90;;;;;;5044651;28;20466;-87
2021/06/12 02:58:13;;;;;;;8.83;8.03;;;20.90;99.90;;;;;;5041455;28;20457;-86
2021/06/12 03:00:41;;;;;;;10.23;8.77;;;20.90;99.90;;;;;;5038354;28;20535;-86
2021/06/12 03:03:08;;;;;;;9.03;8.27;;;20.90;99.90;;;;;;5037585;28;20819;-87
2021/06/12 03:05:38;;;;;;;8.87;7.97;;;20.90;99.90;;;;;;5036280;28;20548;-87
2021/06/12 03:08:06;;;;;;;9.20;8.40;;;20.90;99.90;;;;;;5036621;28;20518;-86
2021/06/12 03:10:34;;;;;;;8.10;7.50;;;21.00;99.90;;;;;;5036064;28;20454;-87
2021/06/12 03:13:03;;;;;;;8.83;8.10;;;21.00;99.90;;;;;;5036596;28;20447;-87
2021/06/12 03:15:33;;;;;;;8.77;8.07;;;21.00;99.90;;;;;;5035901;28;20469;-87
2021/06/12 03:18:01;;;;;;;9.90;9.00;;;21.00;99.90;;;;;;5036918;28;20505;-87
2021/06/12 03:20:28;;;;;;;10.23;9.23;;;21.10;99.90;;;;;;5036439;28;20921;-87
2021/06/12 03:23:00;;;;;;;9.30;8.40;;;21.10;99.90;;;;;;5037134;28;20472;-87
2021/06/12 03:25:27;;;;;;;8.10;7.40;;;21.10;99.90;;;;;;5036273;28;20487;-87
2021/06/12 03:27:53;;;;;;;7.40;6.70;;;21.00;99.90;;;;;;5035973;28;20937;-86
2021/06/12 03:30:20;;;;;;;8.00;7.03;;;21.10;99.90;;;;;;5037837;28;20501;-87
2021/06/12 03:32:48;;;;;;;6.07;5.57;;;21.10;99.90;;;;;;5037892;28;20461;-87
2021/06/12 03:35:14;;;;;;;7.07;6.47;;;21.10;99.90;;;;;;5038691;28;20462;-87
2021/06/12 03:37:41;;;;;;;9.40;6.27;;;21.10;99.90;;;;;;5036715;28;20453;-87
2021/06/12 03:40:10;;;;;;;6.30;5.73;;;21.00;99.90;;;;;;5036181;28;20531;-86
2021/06/12 03:42:36;;;;;;;5.63;5.10;;;21.00;99.90;;;;;;5036700;28;20500;-86
2021/06/12 03:45:06;;;;;;;5.23;4.83;;;21.00;99.90;;;;;;5036589;28;20536;-87
2021/06/12 03:47:32;;;;;;;6.50;5.93;;;21.00;99.90;;;;;;5036414;28;20453;-87
2021/06/12 03:50:01;;;;;;;4.90;4.60;;;21.10;99.90;;;;;;5036086;28;20941;-87
2021/06/12 03:52:29;;;;;;;4.83;4.47;;;20.90;99.90;;;;;;5036149;28;20941;-87
2021/06/12 03:54:56;;;;;;;5.17;4.73;;;20.80;99.90;;;;;;5044817;28;20462;-87
2021/06/12 03:57:23;;;;;;;5.20;4.80;;;20.90;99.90;;;;;;5058101;28;20449;-87
2021/06/12 03:59:50;;;;;;;6.03;5.13;;;20.90;99.90;;;;;;5055859;28;20439;-86
2021/06/12 04:02:16;;;;;;;5.20;4.80;;;20.90;99.90;;;;;;5056882;28;20446;-86
2021/06/12 04:04:44;;;;;;;6.93;4.90;;;20.80;99.90;;;;;;5050528;28;20484;-87
2021/06/12 04:07:12;;;;;;;5.63;5.23;;;20.80;99.90;;;;;;5043376;28;20433;-87
2021/06/12 04:09:38;;;;;;;5.87;5.33;;;20.60;99.90;;;;;;5039034;28;20450;-86
2021/06/12 04:12:06;;;;;;;5.37;4.97;;;20.50;99.90;;;;;;5039485;28;20531;-86
2021/06/12 04:14:32;;;;;;;12.10;10.73;;;20.40;99.90;;;;;;5039597;28;20526;-86
2021/06/12 04:16:58;;;;;;;6.00;5.50;;;20.70;99.90;;;;;;5040893;28;20950;-86
2021/06/12 04:19:24;;;;;;;6.17;5.60;;;20.60;99.90;;;;;;5043566;28;20478;-86
2021/06/12 04:21:51;;;;;;;10.17;8.10;;;20.60;99.90;;;;;;5040084;28;20450;-87
2021/06/12 04:24:18;;;;;;;9.80;8.80;;;20.60;99.90;;;;;;5039461;28;21014;-87
2021/06/12 04:26:45;;;;;;;6.10;5.60;;;20.70;99.90;;;;;;5040086;28;20473;-87
2021/06/12 04:29:11;;;;;;;8.50;7.70;;;20.70;99.90;;;;;;5038581;28;20458;-87
2021/06/12 04:31:37;;;;;;;5.80;5.40;;;20.70;99.90;;;;;;5039267;28;20476;-87
2021/06/12 04:34:03;;;;;;;6.53;6.03;;;20.60;99.90;;;;;;5040873;28;20454;-87
2021/06/12 04:36:29;;;;;;;5.80;5.30;;;20.40;99.90;;;;;;5039588;28;20470;-87
2021/06/12 04:38:56;;;;;;;5.43;4.93;;;20.50;99.90;;;;;;5040325;28;20474;-87
2021/06/12 04:41:23;;;;;;;7.50;6.80;;;20.40;99.90;;;;;;5039257;28;20978;-86
2021/06/12 04:43:50;;;;;;;6.63;6.00;;;20.40;99.90;;;;;;5042230;28;20450;-87
2021/06/12 04:46:16;;;;;;;6.80;4.83;;;20.60;99.90;;;;;;5055410;28;20483;-87
2021/06/12 04:48:42;;;;;;;5.57;5.07;;;20.80;99.90;;;;;;5058103;28;20439;-86
2021/06/12 04:51:08;;;;;;;5.93;5.30;;;20.70;99.90;;;;;;5057036;28;20443;-86
2021/06/12 04:53:34;;;;;;;8.90;8.00;;;20.60;99.90;;;;;;5051482;28;20451;-87
2021/06/12 04:56:00;;;;;;;6.73;5.20;;;20.60;99.90;;;;;;5049148;28;20999;-87
2021/06/12 04:58:28;;;;;;;4.90;4.60;;;20.50;99.90;;;;;;5048571;28;20447;-86
2021/06/12 05:00:54;;;;;;;7.70;7.07;;;20.60;99.90;;;;;;5050446;28;20443;-86
2021/06/12 05:03:21;;;;;;;18.40;14.50;;;20.60;99.90;;;;;;5050944;28;20582;-87
2021/06/12 05:05:47;;;;;;;6.37;5.60;;;20.70;99.90;;;;;;5048780;28;20513;-87
2021/06/12 05:08:14;;;;;;;4.80;4.43;;;20.70;99.90;;;;;;5051356;28;20446;-87
2021/06/12 05:10:40;;;;;;;5.07;4.67;;;20.90;99.90;;;;;;5048237;28;20446;-87
2021/06/12 05:13:07;;;;;;;5.60;5.20;;;20.70;99.90;;;;;;5049257;28;20457;-87
2021/06/12 05:15:35;;;;;;;7.90;7.10;;;20.60;99.90;;;;;;5048886;28;20459;-87
2021/06/12 05:18:04;;;;;;;8.63;7.53;;;20.70;99.90;;;;;;5049625;28;20492;-86
2021/06/12 05:20:30;;;;;;;4.37;4.07;;;20.90;99.90;;;;;;5046451;28;20509;-86
2021/06/12 05:22:57;;;;;;;7.27;6.60;;;20.80;99.90;;;;;;5047571;28;20831;-87
2021/06/12 05:25:23;;;;;;;5.43;5.00;;;20.70;99.90;;;;;;5047508;28;20486;-87
2021/06/12 05:27:50;;;;;;;4.70;4.33;;;20.70;99.90;;;;;;5046752;28;20449;-87
2021/06/12 05:30:17;;;;;;;6.30;5.70;;;20.70;99.90;;;;;;5047495;28;20450;-87
2021/06/12 05:32:45;;;;;;;6.10;5.60;;;21.00;99.90;;;;;;5040949;28;20455;-86
2021/06/12 05:35:11;;;;;;;21.47;18.00;;;21.00;99.90;;;;;;5040262;28;20471;-87
2021/06/12 05:37:38;;;;;;;6.13;5.63;;;21.10;99.90;;;;;;5043332;28;20450;-87
2021/06/12 05:40:05;;;;;;;14.17;12.10;;;21.20;99.90;;;;;;5038631;28;20450;-86
2021/06/12 05:42:32;;;;;;;5.60;5.10;;;21.30;99.90;;;;;;5038330;28;20450;-86
2021/06/12 05:44:58;;;;;;;6.80;6.17;;;21.20;99.90;;;;;;5039591;28;20490;-86
2021/06/12 05:47:24;;;;;;;5.43;4.93;;;21.30;99.90;;;;;;5038211;28;20980;-86
2021/06/12 05:49:51;;;;;;;5.73;5.33;;;21.20;99.90;;;;;;5037405;28;20478;-86
2021/06/12 05:52:17;;;;;;;7.63;6.90;;;21.40;99.90;;;;;;5036803;28;20451;-87
2021/06/12 05:54:43;;;;;;;5.37;4.97;;;21.40;99.90;;;;;;5038433;28;20449;-87
2021/06/12 05:57:10;;;;;;;7.73;6.60;;;21.50;99.90;;;;;;5037290;28;20949;-86
2021/06/12 05:59:36;;;;;;;11.13;10.10;;;21.50;99.90;;;;;;5037184;28;20442;-87
2021/06/12 06:02:02;;;;;;;6.77;6.10;;;21.50;99.90;;;;;;5037222;28;20461;-86
2021/06/12 06:04:28;;;;;;;6.30;5.80;;;21.50;99.90;;;;;;5037441;28;20477;-87
2021/06/12 06:06:56;;;;;;;6.37;5.83;;;21.40;99.90;;;;;;5036527;28;20556;-88
2021/06/12 06:09:22;;;;;;;7.97;7.33;;;21.30;99.90;;;;;;5038132;28;20870;-86
2021/06/12 06:11:48;;;;;;;6.10;5.70;;;21.20;99.90;;;;;;5037290;28;20505;-87
2021/06/12 06:14:15;;;;;;;6.10;5.60;;;21.20;99.90;;;;;;5039482;28;20442;-87
2021/06/12 06:16:41;;;;;;;6.43;5.93;;;21.20;99.90;;;;;;5039539;28;20497;-87
2021/06/12 06:19:08;;;;;;;8.00;7.40;;;21.00;99.90;;;;;;5038455;28;20457;-87
2021/06/12 06:21:34;;;;;;;7.50;6.90;;;21.10;99.90;;;;;;5039718;28;20458;-87
2021/06/12 06:24:04;;;;;;;4.80;4.50;;;21.20;99.90;;;;;;5039162;28;20481;-88
2021/06/12 06:26:31;;;;;;;6.50;6.00;;;21.10;99.90;;;;;;5038197;28;20471;-85
2021/06/12 06:28:57;;;;;;;6.50;5.90;;;21.10;99.90;;;;;;5040474;28;20455;-86
2021/06/12 06:31:23;;;;;;;8.97;8.17;;;21.10;99.90;;;;;;5037362;28;20442;-86
2021/06/12 06:33:49;;;;;;;5.60;5.10;;;21.10;99.90;;;;;;5043566;28;20450;-87
2021/06/12 06:36:15;;;;;;;7.57;4.67;;;21.00;99.90;;;;;;5057235;28;20470;-87
2021/06/12 06:38:41;;;;;;;5.10;4.50;;;20.90;99.90;;;;;;5058041;28;20441;-88
2021/06/12 06:41:09;;;;;;;5.13;4.57;;;20.90;99.90;;;;;;5057570;28;20441;-87
2021/06/12 06:43:35;;;;;;;5.07;4.57;;;20.90;99.90;;;;;;5057170;28;20427;-87
2021/06/12 06:46:01;;;;;;;5.80;5.30;;;21.10;99.90;;;;;;5049991;28;20497;-87
2021/06/12 06:48:27;;;;;;;7.30;5.60;;;21.10;99.90;;;;;;5039067;28;20446;-86
2021/06/12 06:50:54;;;;;;;8.90;5.73;;;21.00;99.90;;;;;;5041851;28;20451;-86
2021/06/12 06:53:20;;;;;;;11.80;5.90;;;21.00;99.90;;;;;;5039027;28;20565;-86
2021/06/12 06:55:49;;;;;;;5.47;4.97;;;20.90;99.90;;;;;;5038181;28;20462;-87
2021/06/12 06:58:16;;;;;;;5.53;5.07;;;20.90;99.90;;;;;;5040671;28;20512;-86
2021/06/12 07:00:44;;;;;;;5.70;5.20;;;20.90;99.90;;;;;;5041468;28;20473;-86
2021/06/12 07:03:11;;;;;;;5.23;4.83;;;20.90;99.90;;;;;;5037772;28;20834;-87
2021/06/12 07:05:37;;;;;;;6.80;5.20;;;21.00;99.90;;;;;;5035420;28;20572;-87
2021/06/12 07:08:03;;;;;;;7.33;5.57;;;21.00;99.90;;;;;;5036803;28;20960;-87
2021/06/12 07:10:29;;;;;;;5.43;4.90;;;21.10;99.90;;;;;;5037675;28;20454;-87
2021/06/12 07:13:05;;;;;;;5.63;4.87;;;21.10;99.90;;;;;;5038150;28;20477;-87
2021/06/12 07:15:35;;;;;;;5.40;4.90;;;21.20;99.90;;;;;;5038449;28;20462;-87
2021/06/12 07:18:05;;;;;;;6.23;5.73;;;21.20;99.90;;;;;;5038733;28;20438;-86
2021/06/12 07:20:31;;;;;;;5.40;5.00;;;21.30;99.90;;;;;;5038021;28;20801;-86
2021/06/12 07:22:57;;;;;;;6.23;5.73;;;21.30;99.90;;;;;;5040971;28;20520;-87
2021/06/12 07:25:23;;;;;;;7.50;6.80;;;21.30;99.90;;;;;;5039363;28;20491;-87
2021/06/12 07:27:52;;;;;;;7.43;6.73;;;21.20;99.90;;;;;;5044679;28;20447;-87
2021/06/12 07:30:18;;;;;;;7.27;6.57;;;21.20;99.90;;;;;;5056522;28;20468;-87
2021/06/12 07:32:46;;;;;;;8.30;6.60;;;21.20;99.90;;;;;;5056304;28;20427;-87
2021/06/12 07:35:12;;;;;;;8.70;7.90;;;21.20;99.90;;;;;;5059892;28;20446;-86
2021/06/12 07:37:39;;;;;;;8.53;6.80;;;21.20;99.90;;;;;;5058355;28;20454;-86
2021/06/12 07:40:06;;;;;;;8.50;7.73;;;21.20;99.90;;;;;;5045721;28;20867;-87
2021/06/12 07:42:32;;;;;;;10.17;8.07;;;21.20;99.90;;;;;;5045475;28;20517;-87
2021/06/12 07:44:59;;;;;;;7.93;6.90;;;21.20;99.90;;;;;;5045698;28;21060;-86
2021/06/12 07:47:25;;;;;;;8.83;7.97;;;21.20;99.90;;;;;;5040690;28;20921;-86
2021/06/12 07:49:52;;;;;;;9.73;8.83;;;21.20;99.90;;;;;;5040833;28;20446;-87
2021/06/12 07:52:18;;;;;;;9.87;8.87;;;21.20;99.90;;;;;;5040253;28;20770;-86
2021/06/12 07:54:44;;;;;;;9.00;8.20;;;21.00;99.90;;;;;;5040473;28;20446;-86
2021/06/12 07:57:11;;;;;;;9.57;8.47;;;21.00;99.90;;;;;;5042675;28;20872;-86
2021/06/12 07:59:39;;;;;;;8.07;7.27;;;21.10;99.90;;;;;;5041042;28;20442;-86
2021/06/12 08:02:05;;;;;;;7.43;6.80;;;21.10;99.90;;;;;;5041921;28;20451;-86
2021/06/12 08:04:31;;;;;;;8.00;7.20;;;;;;;;;;5042234;28;20461;-87
2021/06/12 08:06:59;;;;;;;8.10;7.30;;;21.00;99.90;;;;;;5041740;28;20485;-86
2021/06/12 08:09:25;;;;;;;9.13;8.13;;;21.10;99.90;;;;;;5047670;28;20446;-86
2021/06/12 08:11:51;;;;;;;7.67;6.80;;;21.20;99.90;;;;;;5057391;28;20465;-86
2021/06/12 08:14:17;;;;;;;9.13;8.33;;;21.20;99.90;;;;;;5060249;28;20451;-85
2021/06/12 08:16:43;;;;;;;9.60;8.70;;;21.10;99.90;;;;;;5056658;28;20471;-86
2021/06/12 08:19:10;;;;;;;10.27;8.73;;;21.20;99.90;;;;;;5049619;28;20493;-86
2021/06/12 08:21:37;;;;;;;8.63;7.73;;;21.20;99.90;;;;;;5048255;28;20478;-87
2021/06/12 08:24:05;;;;;;;8.60;7.80;;;21.10;99.90;;;;;;5045413;28;20446;-87
2021/06/12 08:26:31;;;;;;;10.77;9.10;;;21.20;99.90;;;;;;5044942;28;20499;-86
2021/06/12 08:28:57;;;;;;;9.30;8.30;;;21.20;99.90;;;;;;5045716;28;20554;-87
2021/06/12 08:31:23;;;;;;;9.83;8.83;;;21.20;99.90;;;;;;5045541;28;20450;-87
2021/06/12 08:33:50;;;;;;;10.90;9.87;;;21.20;99.90;;;;;;5043040;28;20466;-87
2021/06/12 08:36:16;;;;;;;10.80;9.70;;;21.30;99.90;;;;;;5044511;28;20540;-86
2021/06/12 08:38:43;;;;;;;10.70;9.70;;;21.40;99.90;;;;;;5040271;28;20446;-86
2021/06/12 08:41:10;;;;;;;10.50;9.40;;;21.50;99.90;;;;;;5038738;28;21003;-86
2021/06/12 08:43:37;;;;;;;10.23;9.13;;;21.50;99.90;;;;;;5039454;28;20443;-86
2021/06/12 08:46:03;;;;;;;9.13;8.23;;;21.50;99.90;;;;;;5039149;28;20853;-86
2021/06/12 08:48:30;;;;;;;11.60;9.00;;;21.60;99.90;;;;;;5039843;28;20450;-86
2021/06/12 08:50:57;;;;;;;8.73;7.83;;;21.60;99.90;;;;;;5041738;28;20446;-87
2021/06/12 08:53:23;;;;;;;13.80;8.07;;;21.70;99.90;;;;;;5041007;28;20961;-86
2021/06/12 08:55:49;;;;;;;9.50;8.60;;;21.70;99.90;;;;;;5041567;28;20482;-87
2021/06/12 08:58:17;;;;;;;10.30;9.23;;;21.70;99.90;;;;;;5040091;28;20454;-86
2021/06/12 09:00:48;;;;;;;10.37;8.90;;;21.60;99.90;;;;;;5040119;28;20455;-87
2021/06/12 09:03:16;;;;;;;12.07;9.70;;;21.60;99.90;;;;;;5041587;28;20439;-86
2021/06/12 09:05:47;;;;;;;11.00;9.87;;;21.60;99.90;;;;;;5040342;28;20490;-87
2021/06/12 09:08:15;;;;;;;13.50;11.57;;;21.50;99.90;;;;;;5041866;28;20756;-87
2021/06/12 09:10:54;;;;;;;10.57;9.50;;;21.50;99.90;;;;;;5041898;28;20446;-86
2021/06/12 09:13:45;;;;;;;12.43;10.20;;;21.50;99.90;;;;;;5042018;28;20442;-86
2021/06/12 09:16:24;;;;;;;9.37;8.30;;;21.30;99.90;;;;;;5041647;28;20548;-87
2021/06/12 09:18:51;;;;;;;10.83;8.00;;;21.30;99.90;;;;;;5042095;28;21031;-86
2021/06/12 09:21:26;;;;;;;10.63;9.33;;;21.30;99.90;;;;;;5044678;28;20446;-86
2021/06/12 09:23:53;;;;;;;10.47;8.80;;;21.30;99.90;;;;;;5058235;28;20446;-86
2021/06/12 09:26:21;;;;;;;9.87;8.90;;;21.20;99.90;;;;;;5057967;28;20501;-86
2021/06/12 09:28:51;;;;;;;10.90;9.50;;;21.30;99.90;;;;;;5057548;28;20434;-86
2021/06/12 09:31:19;;;;;;;13.33;9.73;;;21.20;99.90;;;;;;5047163;28;20458;-87
2021/06/12 09:33:46;;;;;;;12.07;9.17;;;21.20;99.90;;;;;;5039897;28;20454;-87
2021/06/12 09:36:13;;;;;;;11.43;9.20;;;21.10;99.90;;;;;;5041910;28;20490;-86
2021/06/12 09:38:41;;;;;;;10.50;9.40;;;21.20;99.90;;;;;;5052422;28;20443;-87
2021/06/12 09:41:24;;;;;;;13.20;11.60;;;21.00;99.90;;;;;;5044973;28;20446;-87
2021/06/12 09:43:52;;;;;;;19.47;13.30;;;20.30;99.90;;;;;;5052499;28;20442;-86
2021/06/12 09:46:35;;;;;;;22.37;15.27;;;19.50;99.90;;;;;;5041364;28;20493;-86
2021/06/12 09:49:01;;;;;;;18.10;16.23;;;19.00;99.90;;;;;;5040023;28;20437;-86
2021/06/12 09:51:28;;;;;;;22.30;17.27;;;18.80;99.90;;;;;;5040603;28;20464;-86
2021/06/12 09:53:56;;;;;;;20.77;17.40;;;18.70;99.90;;;;;;5041679;28;20864;-85
2021/06/12 09:56:24;;;;;;;18.70;15.50;;;18.80;99.90;;;;;;5053809;28;20463;-86
2021/06/12 09:58:52;;;;;;;20.33;16.43;;;18.80;99.90;;;;;;5054797;28;20456;-85
2021/06/12 10:01:20;;;;;;;18.73;16.13;;;18.90;99.90;;;;;;5042991;28;20556;-87
2021/06/12 10:03:47;;;;;;;17.80;15.50;;;19.00;99.90;;;;;;5043014;28;20458;-86
2021/06/12 10:06:16;;;;;;;22.97;16.20;;;19.10;99.90;;;;;;5041868;28;20491;-87
2021/06/12 10:08:45;;;;;;;19.90;17.20;;;19.00;99.90;;;;;;5042995;28;20453;-86
2021/06/12 10:11:12;;;;;;;22.30;18.47;;;19.10;99.90;;;;;;5039779;28;20445;-86
2021/06/12 10:13:39;;;;;;;21.53;16.97;;;19.20;99.90;;;;;;5041560;28;20455;-86
2021/06/12 10:16:10;;;;;;;20.30;16.07;;;19.20;99.90;;;;;;5041540;28;20485;-86
2021/06/12 10:18:39;;;;;;;16.90;15.27;;;19.30;99.90;;;;;;5042296;28;20456;-86
2021/06/12 10:21:09;;;;;;;16.60;14.90;;;19.30;99.90;;;;;;5039752;28;20532;-86
2021/06/12 10:23:37;;;;;;;17.63;15.67;;;19.40;99.90;;;;;;5042207;28;20454;-86
2021/06/12 10:26:04;;;;;;;18.60;16.17;;;19.60;99.90;;;;;;5038994;28;20489;-86
2021/06/12 10:28:30;;;;;;;15.07;13.47;;;19.50;99.90;;;;;;5040617;28;20460;-86
2021/06/12 10:30:57;;;;;;;16.33;14.63;;;19.50;99.90;;;;;;5041646;28;20457;-86
2021/06/12 10:33:25;;;;;;;15.30;13.87;;;19.50;99.90;;;;;;5056861;28;20433;-85
2021/06/12 10:35:51;;;;;;;15.60;14.00;;;19.60;99.90;;;;;;5053433;28;20470;-85
2021/06/12 10:38:29;;;;;;;15.10;13.60;;;19.70;99.90;;;;;;5040132;28;20458;-85
2021/06/12 10:40:56;;;;;;;15.33;13.73;;;19.80;99.90;;;;;;5038792;28;20447;-85
2021/06/12 10:43:25;;;;;;;13.83;11.97;;;19.90;99.90;;;;;;5039263;28;20455;-86
2021/06/12 10:46:10;;;;;;;14.53;12.10;;;20.10;99.90;;;;;;5039974;28;21026;-86
2021/06/12 10:48:43;;;;;;;12.90;11.60;;;20.40;99.90;;;;;;5040321;28;20434;-86
2021/06/12 10:51:11;;;;;;;11.63;10.63;;;20.50;99.90;;;;;;5039606;28;20442;-85
2021/06/12 10:53:38;;;;;;;9.93;8.93;;;20.70;99.90;;;;;;5038870;28;20453;-86
2021/06/12 10:56:06;;;;;;;14.23;9.50;;;20.80;99.90;;;;;;5041815;28;20526;-85
2021/06/12 10:58:44;;;;;;;9.97;9.03;;;20.80;99.90;;;;;;5042771;28;20451;-85
2021/06/12 11:01:16;;;;;;;9.10;8.30;;;20.80;99.90;;;;;;5040431;28;20937;-85
2021/06/12 11:04:02;;;;;;;9.30;8.40;;;20.90;99.90;;;;;;5038875;28;20426;-85
2021/06/12 11:06:41;;;;;;;9.00;8.30;;;21.00;99.90;;;;;;5042447;28;20530;-85
2021/06/12 11:09:37;;;;;;;9.13;8.33;;;21.00;99.90;;;;;;5046733;28;20430;-85
2021/06/12 11:12:19;;;;;;;10.60;7.80;;;21.20;99.90;;;;;;5052873;28;20430;-85
2021/06/12 11:14:56;;;;;;;8.37;7.63;;;21.20;99.90;;;;;;5049747;28;20446;-87
2021/06/12 11:17:22;;;;;;;8.43;7.73;;;21.20;99.90;;;;;;5048980;28;20450;-86
2021/06/12 11:20:11;;;;;;;7.60;7.00;;;21.20;99.90;;;;;;5046234;28;20549;-86
2021/06/12 11:22:38;;;;;;;7.60;7.00;;;21.30;99.90;;;;;;5042657;28;20438;-86
2021/06/12 11:25:47;;;;;;;7.30;6.60;;;21.40;99.90;;;;;;5041646;28;21071;-86
2021/06/12 11:28:20;;;;;;;7.70;6.03;;;21.60;99.90;;;;;;5044270;28;20434;-86
2021/06/12 11:30:46;;;;;;;5.70;5.30;;;21.50;99.90;;;;;;5043579;28;20874;-86
2021/06/12 11:33:13;;;;;;;7.10;6.40;;;21.40;99.90;;;;;;5043769;28;20504;-86
2021/06/12 11:35:57;;;;;;;7.73;6.40;;;21.50;99.90;;;;;;5048554;28;20466;-87
2021/06/12 11:38:30;;;;;;;6.40;5.90;;;21.50;99.90;;;;;;5059657;28;20438;-85
2021/06/12 11:41:00;;;;;;;6.63;6.03;;;21.50;99.90;;;;;;5057425;28;20434;-86
2021/06/12 11:43:38;;;;;;;6.20;5.70;;;21.60;99.90;;;;;;5050191;28;20913;-86
2021/06/12 11:46:08;;;;;;;5.97;5.37;;;21.60;99.90;;;;;;5047298;28;20485;-86
2021/06/12 11:48:42;;;;;;;6.70;5.87;;;21.80;99.90;;;;;;5047319;28;20446;-86
2021/06/12 11:51:14;;;;;;;6.80;6.10;;;21.90;99.90;;;;;;5046713;28;20430;-86
2021/06/12 11:53:41;;;;;;;6.67;6.00;;;21.90;99.90;;;;;;5046197;28;20457;-87
2021/06/12 11:56:08;;;;;;;6.50;5.90;;;22.10;99.90;;;;;;5046414;28;20475;-86
2021/06/12 11:58:53;;;;;;;5.70;5.20;;;22.10;99.90;;;;;;5044898;28;20465;-85
2021/06/12 12:01:34;;;;;;;10.23;6.20;;;22.10;99.90;;;;;;5043500;28;20430;-85
2021/06/12 12:04:04;;;;;;;6.57;5.93;;;22.10;99.90;;;;;;5043723;28;20668;-85
2021/06/12 12:06:35;;;;;;;7.70;6.10;;;22.30;99.90;;;;;;5042236;28;20521;-86
2021/06/12 12:09:02;;;;;;;5.10;4.80;;;22.30;99.90;;;;;;5049146;28;20468;-86
2021/06/12 12:11:28;;;;;;;5.83;5.30;;;22.30;99.90;;;;;;5058625;28;20469;-84
2021/06/12 12:14:07;;;;;;;5.60;5.20;;;22.20;99.90;;;;;;5058580;28;20443;-85
2021/06/12 12:16:36;;;;;;;5.93;5.40;;;22.10;99.90;;;;;;5057184;28;20454;-85
2021/06/12 12:19:05;;;;;;;5.10;4.70;;;22.20;99.90;;;;;;5052951;28;20447;-86
2021/06/12 12:21:35;;;;;;;5.20;4.80;;;22.10;99.90;;;;;;5041302;28;20972;-86
2021/06/12 12:24:07;;;;;;;19.07;5.30;;;22.10;99.90;;;;;;5047528;28;20431;-85
2021/06/12 12:26:34;;;;;;;4.93;4.53;;;22.00;99.90;;;;;;5046335;28;20513;-86
2021/06/12 12:29:04;;;;;;;5.40;4.47;;;21.50;99.90;;;;;;5049193;28;20450;-85
2021/06/12 12:31:31;;;;;;;4.43;3.97;;;20.30;99.90;;;;;;5048457;28;20980;-85
2021/06/12 12:34:00;;;;;;;4.80;4.40;;;19.40;99.90;;;;;;5049818;28;20452;-85
2021/06/12 12:36:28;;;;;;;5.43;4.93;;;18.90;99.90;;;;;;5049777;28;20452;-85
2021/06/12 12:39:01;;;;;;;4.87;4.47;;;18.70;99.90;;;;;;5050591;28;20450;-85
2021/06/12 12:41:30;;;;;;;7.00;5.20;;;18.40;99.90;;;;;;5047385;28;20427;-86
2021/06/12 12:44:08;;;;;;;7.03;6.23;;;18.20;99.90;;;;;;5044277;28;20450;-86
2021/06/12 12:46:36;;;;;;;6.93;6.23;;;18.10;99.90;;;;;;5059394;28;20486;-85
2021/06/12 12:49:02;;;;;;;5.93;5.53;;;17.90;99.90;;;;;;5059503;28;20442;-86
2021/06/12 12:51:29;;;;;;;6.10;5.50;;;17.70;99.90;;;;;;5059309;28;20433;-85